createdAt,value
2022-08-19T00:00:41.902Z,9.745505
2022-08-19T00:01:41.897Z,9.745452
2022-08-19T00:02:50.021Z,9.745438
2022-08-19T00:03:42.883Z,9.745602
2022-08-19T00:04:41.904Z,9.745659
2022-08-19T00:05:41.866Z,9.745659
2022-08-19T00:06:41.861Z,9.745659
2022-08-19T00:07:41.874Z,9.745088
2022-08-19T00:08:42.881Z,9.745300
2022-08-19T00:09:41.832Z,9.745307
2022-08-19T00:10:41.826Z,9.745380
2022-08-19T00:11:41.817Z,9.745562
2022-08-19T00:12:46.800Z,9.745449
2022-08-19T00:13:42.798Z,9.745268
2022-08-19T00:14:41.794Z,9.745423
2022-08-19T00:15:41.787Z,9.745523
2022-08-19T00:16:41.781Z,9.745579
2022-08-19T00:17:42.049Z,9.745572
2022-08-19T00:18:41.772Z,9.745499
2022-08-19T00:19:41.757Z,9.745264
2022-08-19T00:20:41.753Z,9.745146
2022-08-19T00:21:41.738Z,9.745219
2022-08-19T00:22:41.765Z,9.745375
2022-08-19T00:23:41.723Z,9.745514
2022-08-19T00:24:41.716Z,9.745417
2022-08-19T00:25:42.707Z,9.745530
2022-08-19T00:26:42.697Z,9.745553
2022-08-19T00:27:41.717Z,9.745507
2022-08-19T00:28:41.684Z,9.745393
2022-08-19T00:29:41.690Z,9.745267
2022-08-19T00:30:41.667Z,9.745399
2022-08-19T00:31:41.659Z,9.745463
2022-08-19T00:32:41.653Z,9.745591
2022-08-19T00:33:41.672Z,9.745577
2022-08-19T00:34:41.635Z,9.745450
2022-08-19T00:35:41.630Z,9.745178
2022-08-19T00:36:41.620Z,9.745373
2022-08-19T00:37:41.612Z,9.745417
2022-08-19T00:38:41.634Z,9.745436
2022-08-19T00:39:41.661Z,9.745480
2022-08-19T00:40:41.591Z,9.745493
2022-08-19T00:41:41.587Z,9.745337
2022-08-19T00:42:41.579Z,9.745219
2022-08-19T00:43:41.601Z,9.745385
2022-08-19T00:44:41.568Z,9.745456
2022-08-19T00:45:41.556Z,9.745402
2022-08-19T00:46:41.552Z,9.745380
2022-08-19T00:47:41.546Z,9.745504
2022-08-19T00:48:41.564Z,9.745688
2022-08-19T00:49:41.531Z,9.745745
2022-08-19T00:50:51.620Z,9.745704
2022-08-19T00:51:42.511Z,9.745537
2022-08-19T00:52:41.507Z,9.745533
2022-08-19T00:53:41.526Z,9.745531
2022-08-19T00:54:41.492Z,9.745605
2022-08-19T00:55:41.484Z,9.745584
2022-08-19T00:56:41.693Z,9.745571
2022-08-19T00:57:41.472Z,9.745610
2022-08-19T00:58:41.493Z,9.745610
2022-08-19T00:59:56.168Z,9.745514
2022-08-19T01:00:42.446Z,9.745627
2022-08-19T01:01:41.573Z,9.745591
2022-08-19T01:02:41.435Z,9.745673
2022-08-19T01:03:57.002Z,9.745362
2022-08-19T01:04:42.409Z,9.745651
2022-08-19T01:05:41.407Z,9.745500
2022-08-19T01:06:41.403Z,9.745708
2022-08-19T01:07:41.392Z,9.745592
2022-08-19T01:08:41.411Z,9.745546
2022-08-19T01:09:41.378Z,9.745901
2022-08-19T01:10:41.373Z,9.745334
2022-08-19T01:11:41.370Z,9.745427
2022-08-19T01:12:41.360Z,9.745583
2022-08-19T01:13:49.190Z,9.745581
2022-08-19T01:14:42.339Z,9.745625
2022-08-19T01:15:41.328Z,9.746019
2022-08-19T01:16:41.326Z,9.745688
2022-08-19T01:17:41.318Z,9.745732
2022-08-19T01:18:41.339Z,9.745623
2022-08-19T01:19:43.512Z,9.745703
2022-08-19T01:20:41.295Z,9.745634
2022-08-19T01:21:41.286Z,9.745619
2022-08-19T01:22:41.281Z,9.745605
2022-08-19T01:23:41.294Z,9.745654
2022-08-19T01:24:42.242Z,9.745870
2022-08-19T01:25:42.256Z,9.745698
2022-08-19T01:26:41.246Z,9.745566
2022-08-19T01:27:43.206Z,9.745803
2022-08-19T01:28:42.308Z,9.745981
2022-08-19T01:29:41.224Z,9.745875
2022-08-19T01:30:44.213Z,9.745751
2022-08-19T01:31:41.210Z,9.745652
2022-08-19T01:32:41.200Z,9.745659
2022-08-19T01:33:42.222Z,9.745796
2022-08-19T01:34:41.188Z,9.745294
2022-08-19T01:35:41.176Z,9.745441
2022-08-19T01:36:41.170Z,9.745687
2022-08-19T01:37:41.161Z,9.745864
2022-08-19T01:38:44.002Z,9.745855
2022-08-19T01:39:41.189Z,9.745556
2022-08-19T01:40:41.144Z,9.745541
2022-08-19T01:41:41.129Z,9.745815
2022-08-19T01:42:41.124Z,9.745875
2022-08-19T01:44:13.720Z,9.745486
2022-08-19T01:44:42.108Z,9.745757
2022-08-19T01:45:41.097Z,9.745801
2022-08-19T01:46:41.087Z,9.745621
2022-08-19T01:47:41.085Z,9.745647
2022-08-19T01:48:41.074Z,9.745823
2022-08-19T01:49:41.101Z,9.745941
2022-08-19T01:50:41.061Z,9.745761
2022-08-19T01:51:41.045Z,9.745780
2022-08-19T01:52:41.048Z,9.745538
2022-08-19T01:53:41.064Z,9.745551
2022-08-19T01:54:41.058Z,9.745432
2022-08-19T01:55:41.571Z,9.745152
2022-08-19T01:56:41.015Z,9.745348
2022-08-19T01:57:41.019Z,9.745600
2022-08-19T01:58:40.995Z,9.745709
2022-08-19T01:59:41.015Z,9.745711
2022-08-19T02:00:40.984Z,9.745713
2022-08-19T02:01:41.033Z,9.745535
2022-08-19T02:02:40.953Z,9.745441
2022-08-19T02:03:41.959Z,9.745679
2022-08-19T02:04:40.982Z,9.745807
2022-08-19T02:05:40.941Z,9.745922
2022-08-19T02:06:40.935Z,9.745945
2022-08-19T02:07:41.332Z,9.745827
2022-08-19T02:08:40.920Z,9.745795
2022-08-19T02:09:40.935Z,9.745588
2022-08-19T02:10:40.903Z,9.745754
2022-08-19T02:11:40.889Z,9.745723
2022-08-19T02:12:40.887Z,9.745646
2022-08-19T02:13:40.879Z,9.745666
2022-08-19T02:14:40.901Z,9.745482
2022-08-19T02:15:40.866Z,9.745522
2022-08-19T02:16:40.854Z,9.745640
2022-08-19T02:17:40.850Z,9.745472
2022-08-19T02:18:40.843Z,9.745614
2022-08-19T02:19:40.964Z,9.745687
2022-08-19T02:20:40.830Z,9.745590
2022-08-19T02:21:40.813Z,9.745760
2022-08-19T02:22:40.807Z,9.745686
2022-08-19T02:23:40.799Z,9.745705
2022-08-19T02:24:40.820Z,9.745641
2022-08-19T02:25:40.785Z,9.745524
2022-08-19T02:26:40.776Z,9.745693
2022-08-19T02:27:40.768Z,9.745907
2022-08-19T02:28:40.764Z,9.745787
2022-08-19T02:29:40.782Z,9.745616
2022-08-19T02:30:40.746Z,9.745568
2022-08-19T02:31:40.731Z,9.745755
2022-08-19T02:32:44.504Z,9.745523
2022-08-19T02:33:40.729Z,9.746274
2022-08-19T02:34:40.719Z,9.745792
2022-08-19T02:35:40.734Z,9.745644
2022-08-19T02:36:42.437Z,9.745525
2022-08-19T02:37:40.690Z,9.745506
2022-08-19T02:38:40.687Z,9.745492
2022-08-19T02:39:40.717Z,9.745564
2022-08-19T02:40:40.692Z,9.745624
2022-08-19T02:41:40.656Z,9.745728
2022-08-19T02:42:40.652Z,9.745687
2022-08-19T02:43:40.638Z,9.745684
2022-08-19T02:44:41.629Z,9.745755
2022-08-19T02:45:41.638Z,9.745707
2022-08-19T02:46:40.614Z,9.745554
2022-08-19T02:47:40.607Z,9.745734
2022-08-19T02:48:40.604Z,9.745683
2022-08-19T02:49:40.595Z,9.745575
2022-08-19T02:50:40.605Z,9.745556
2022-08-19T02:51:41.574Z,9.745522
2022-08-19T02:52:40.573Z,9.745552
2022-08-19T02:53:40.562Z,9.745796
2022-08-19T02:54:40.558Z,9.746035
2022-08-19T02:55:46.091Z,9.746070
2022-08-19T02:56:41.545Z,9.745878
2022-08-19T02:57:40.532Z,9.745745
2022-08-19T02:58:40.524Z,9.745788
2022-08-19T02:59:40.513Z,9.745358
2022-08-19T03:00:40.538Z,9.745502
2022-08-19T03:01:40.584Z,9.745647
2022-08-19T03:02:40.494Z,9.745460
2022-08-19T03:03:40.486Z,9.745611
2022-08-19T03:04:40.476Z,9.745593
2022-08-19T03:05:47.938Z,9.745594
2022-08-19T03:06:41.464Z,9.745571
2022-08-19T03:07:40.456Z,9.745553
2022-08-19T03:08:40.450Z,9.745614
2022-08-19T03:09:40.444Z,9.745443
2022-08-19T03:10:40.458Z,9.745417
2022-08-19T03:11:40.421Z,9.745550
2022-08-19T03:12:40.417Z,9.745664
2022-08-19T03:13:40.404Z,9.745515
2022-08-19T03:14:40.399Z,9.745600
2022-08-19T03:15:40.416Z,9.745584
2022-08-19T03:16:40.385Z,9.745629
2022-08-19T03:17:40.378Z,9.745460
2022-08-19T03:18:40.372Z,9.745489
2022-08-19T03:19:40.371Z,9.745542
2022-08-19T03:20:40.373Z,9.745625
2022-08-19T03:21:40.343Z,9.745639
2022-08-19T03:22:40.339Z,9.745614
2022-08-19T03:23:40.331Z,9.745725
2022-08-19T03:24:40.320Z,9.745686
2022-08-19T03:25:40.338Z,9.745490
2022-08-19T03:26:40.306Z,9.745855
2022-08-19T03:27:40.296Z,9.745613
2022-08-19T03:28:40.294Z,9.745517
2022-08-19T03:29:43.865Z,9.745574
2022-08-19T03:30:40.298Z,9.745678
2022-08-19T03:31:45.664Z,9.745640
2022-08-19T03:32:45.327Z,9.745583
2022-08-19T03:33:40.249Z,9.745451
2022-08-19T03:34:40.246Z,9.745599
2022-08-19T03:35:40.266Z,9.745471
2022-08-19T03:36:40.235Z,9.745872
2022-08-19T03:37:40.225Z,9.745617
2022-08-19T03:38:40.213Z,9.745596
2022-08-19T03:39:40.238Z,9.745374
2022-08-19T03:40:40.227Z,9.745522
2022-08-19T03:41:45.361Z,9.745792
2022-08-19T03:42:49.368Z,9.745660
2022-08-19T03:43:42.171Z,9.745604
2022-08-19T03:44:40.165Z,9.745513
2022-08-19T03:45:40.181Z,9.745582
2022-08-19T03:46:40.153Z,9.745493
2022-08-19T03:47:40.142Z,9.745617
2022-08-19T03:48:40.135Z,9.745687
2022-08-19T03:49:40.126Z,9.745725
2022-08-19T03:50:40.139Z,9.745652
2022-08-19T03:51:40.114Z,9.745728
2022-08-19T03:52:40.102Z,9.745801
2022-08-19T03:53:41.093Z,9.745787
2022-08-19T03:54:40.090Z,9.745710
2022-08-19T03:55:40.110Z,9.745834
2022-08-19T03:56:40.072Z,9.745468
2022-08-19T03:57:40.072Z,9.746215
2022-08-19T03:58:40.060Z,9.745801
2022-08-19T03:59:40.048Z,9.745640
2022-08-19T04:00:40.066Z,9.745350
2022-08-19T04:01:40.070Z,9.744988
2022-08-19T04:02:40.026Z,9.745156
2022-08-19T04:03:40.016Z,9.745318
2022-08-19T04:04:40.010Z,9.745374
2022-08-19T04:05:40.021Z,9.745402
2022-08-19T04:06:40.106Z,9.745362
2022-08-19T04:07:39.983Z,9.745420
2022-08-19T04:08:39.978Z,9.745267
2022-08-19T04:09:39.969Z,9.745457
2022-08-19T04:10:39.986Z,9.745321
2022-08-19T04:11:43.165Z,9.745390
2022-08-19T04:12:39.945Z,9.745313
2022-08-19T04:13:39.935Z,9.745448
2022-08-19T04:14:39.938Z,9.745786
2022-08-19T04:15:39.942Z,9.745804
2022-08-19T04:16:39.916Z,9.745576
2022-08-19T04:17:39.902Z,9.745615
2022-08-19T04:18:39.888Z,9.745571
2022-08-19T04:19:40.888Z,9.745407
2022-08-19T04:20:39.910Z,9.745325
2022-08-19T04:21:39.878Z,9.745317
2022-08-19T04:22:39.865Z,9.745466
2022-08-19T04:23:43.065Z,9.745296
2022-08-19T04:24:40.849Z,9.745563
2022-08-19T04:25:39.866Z,9.745591
2022-08-19T04:26:39.836Z,9.745721
2022-08-19T04:27:39.827Z,9.745667
2022-08-19T04:28:39.821Z,9.745533
2022-08-19T04:29:39.811Z,9.745438
2022-08-19T04:30:39.827Z,9.745439
2022-08-19T04:31:39.801Z,9.745356
2022-08-19T04:32:39.789Z,9.745506
2022-08-19T04:33:39.790Z,9.745656
2022-08-19T04:35:02.752Z,9.745648
2022-08-19T04:35:40.792Z,9.745515
2022-08-19T04:36:39.754Z,9.745399
2022-08-19T04:37:39.746Z,9.745558
2022-08-19T04:38:39.744Z,9.745846
2022-08-19T04:39:39.768Z,9.745725
2022-08-19T04:40:39.754Z,9.745660
2022-08-19T04:41:39.724Z,9.745632
2022-08-19T04:42:39.713Z,9.745382
2022-08-19T04:43:39.701Z,9.745620
2022-08-19T04:44:45.980Z,9.745572
2022-08-19T04:45:43.947Z,9.745548
2022-08-19T04:46:50.873Z,9.745888
2022-08-19T04:47:47.616Z,9.745539
2022-08-19T04:48:44.164Z,9.745593
2022-08-19T04:49:40.655Z,9.745487
2022-08-19T04:50:39.674Z,9.745630
2022-08-19T04:51:39.635Z,9.745584
2022-08-19T04:52:39.629Z,9.745452
2022-08-19T04:53:39.623Z,9.745548
2022-08-19T04:54:40.082Z,9.745542
2022-08-19T04:55:39.632Z,9.745411
2022-08-19T04:56:39.598Z,9.745516
2022-08-19T04:57:39.592Z,9.745623
2022-08-19T04:58:39.582Z,9.745985
2022-08-19T04:59:39.591Z,9.745758
2022-08-19T05:00:39.648Z,9.745752
2022-08-19T05:01:39.559Z,9.745487
2022-08-19T05:02:39.550Z,9.745658
2022-08-19T05:03:40.538Z,9.745774
2022-08-19T05:04:39.553Z,9.746228
2022-08-19T05:05:44.447Z,9.745624
2022-08-19T05:06:40.521Z,9.745402
2022-08-19T05:07:39.516Z,9.745642
2022-08-19T05:08:39.504Z,9.745828
2022-08-19T05:09:58.491Z,9.745737
2022-08-19T05:10:40.548Z,9.745411
2022-08-19T05:11:39.476Z,9.742945
2022-08-19T05:12:39.471Z,9.743866
2022-08-19T05:13:39.465Z,9.744926
2022-08-19T05:14:39.456Z,9.745028
2022-08-19T05:15:39.474Z,9.745570
2022-08-19T05:16:39.445Z,9.745820
2022-08-19T05:17:39.476Z,9.745784
2022-08-19T05:18:39.426Z,9.745488
2022-08-19T05:19:39.415Z,9.745409
2022-08-19T05:20:39.438Z,9.745708
2022-08-19T05:21:39.410Z,9.744658
2022-08-19T05:22:39.396Z,9.744645
2022-08-19T05:23:39.386Z,9.744977
2022-08-19T05:24:56.362Z,9.745113
2022-08-19T05:25:41.398Z,9.745113
2022-08-19T05:26:39.368Z,9.745113
2022-08-19T05:27:39.354Z,9.745113
2022-08-19T05:28:39.350Z,9.745113
2022-08-19T05:29:39.344Z,9.745773
2022-08-19T05:30:47.343Z,9.745459
2022-08-19T05:31:41.743Z,9.745459
2022-08-19T05:32:39.314Z,9.745459
2022-08-19T05:33:39.314Z,9.745459
2022-08-19T05:34:39.311Z,9.745459
2022-08-19T05:35:39.324Z,9.745357
2022-08-19T05:36:39.285Z,9.745853
2022-08-19T05:37:39.280Z,9.745771
2022-08-19T05:38:39.271Z,9.745236
2022-08-19T05:39:39.359Z,9.745241
2022-08-19T05:40:39.285Z,9.745422
2022-08-19T05:41:39.255Z,9.745499
2022-08-19T05:42:39.245Z,9.745502
2022-08-19T05:43:39.234Z,9.745450
2022-08-19T05:44:39.231Z,9.745238
2022-08-19T05:45:39.247Z,9.745290
2022-08-19T05:46:39.210Z,9.745366
2022-08-19T05:47:42.197Z,9.745547
2022-08-19T05:48:39.200Z,9.745571
2022-08-19T05:49:39.182Z,9.745521
2022-08-19T05:50:39.208Z,9.745593
2022-08-19T05:51:39.173Z,9.745267
2022-08-19T05:52:39.196Z,9.745414
2022-08-19T05:53:39.155Z,9.745468
2022-08-19T05:54:39.142Z,9.745522
2022-08-19T05:55:40.174Z,9.745754
2022-08-19T05:56:39.139Z,9.745712
2022-08-19T05:57:39.130Z,9.745564
2022-08-19T05:58:39.142Z,9.745314
2022-08-19T05:59:39.272Z,9.745283
2022-08-19T06:00:39.139Z,9.745360
2022-08-19T06:01:39.095Z,9.745394
2022-08-19T06:02:39.108Z,9.745152
2022-08-19T06:03:39.079Z,9.745247
2022-08-19T06:04:39.072Z,9.745483
2022-08-19T06:05:39.184Z,9.745518
2022-08-19T06:06:41.082Z,9.745665
2022-08-19T06:07:39.065Z,9.745689
2022-08-19T06:08:39.043Z,9.745543
2022-08-19T06:09:39.035Z,9.745548
2022-08-19T06:10:39.032Z,9.745435
2022-08-19T06:11:39.059Z,9.745162
2022-08-19T06:12:39.012Z,9.745089
2022-08-19T06:13:39.011Z,9.745736
2022-08-19T06:14:41.859Z,9.745435
2022-08-19T06:15:38.993Z,9.745021
2022-08-19T06:16:39.011Z,9.745384
2022-08-19T06:17:38.974Z,9.745442
2022-08-19T06:18:38.971Z,9.745397
2022-08-19T06:19:40.532Z,9.745436
2022-08-19T06:20:54.922Z,9.745292
2022-08-19T06:21:40.969Z,9.745070
2022-08-19T06:22:38.929Z,9.745346
2022-08-19T06:23:38.926Z,9.745663
2022-08-19T06:24:38.925Z,9.745975
2022-08-19T06:25:38.912Z,9.745534
2022-08-19T06:26:38.963Z,9.745677
2022-08-19T06:27:48.281Z,9.745673
2022-08-19T06:28:40.887Z,9.745451
2022-08-19T06:29:38.882Z,9.745678
2022-08-19T06:30:38.989Z,9.745605
2022-08-19T06:31:38.894Z,9.745440
2022-08-19T06:32:42.712Z,9.745635
2022-08-19T06:33:39.848Z,9.745642
2022-08-19T06:34:38.841Z,9.745538
2022-08-19T06:35:38.880Z,9.745556
2022-08-19T06:36:38.866Z,9.745415
2022-08-19T06:37:42.034Z,9.745386
2022-08-19T06:38:39.813Z,9.745472
2022-08-19T06:39:38.842Z,9.745496
2022-08-19T06:40:38.817Z,9.745517
2022-08-19T06:41:43.610Z,9.745504
2022-08-19T06:42:44.809Z,9.745354
2022-08-19T06:43:42.128Z,9.745421
2022-08-19T06:44:42.756Z,9.745493
2022-08-19T06:45:39.559Z,9.745494
2022-08-19T06:46:38.775Z,9.745478
2022-08-19T06:47:38.736Z,9.745564
2022-08-19T06:48:45.331Z,9.745485
2022-08-19T06:49:40.724Z,9.745514
2022-08-19T06:50:39.624Z,9.745428
2022-08-19T06:51:42.626Z,9.745658
2022-08-19T06:52:38.701Z,9.745679
2022-08-19T06:53:38.702Z,9.745675
2022-08-19T06:54:55.688Z,9.745566
2022-08-19T06:55:39.709Z,9.745635
2022-08-19T06:56:38.660Z,9.745607
2022-08-19T06:57:39.663Z,9.745720
2022-08-19T06:58:38.654Z,9.745884
2022-08-19T06:59:38.645Z,9.746027
2022-08-19T07:00:38.637Z,9.745823
2022-08-19T07:01:38.654Z,9.745682
2022-08-19T07:02:38.624Z,9.745717
2022-08-19T07:03:39.728Z,9.745625
2022-08-19T07:04:38.611Z,9.745626
2022-08-19T07:05:38.600Z,9.745591
2022-08-19T07:06:43.572Z,9.745481
2022-08-19T07:07:40.584Z,9.745438
2022-08-19T07:09:38.585Z,9.745503
2022-08-19T07:10:38.564Z,9.745481
2022-08-19T07:11:38.578Z,9.745584
2022-08-19T07:12:38.551Z,9.745614
2022-08-19T07:13:38.543Z,9.745515
2022-08-19T07:14:38.528Z,9.745551
2022-08-19T07:15:38.551Z,9.745619
2022-08-19T07:16:42.515Z,9.745573
2022-08-19T07:17:39.507Z,9.745606
2022-08-19T07:18:38.500Z,9.745462
2022-08-19T07:19:38.495Z,9.745492
2022-08-19T07:20:38.510Z,9.745467
2022-08-19T07:21:38.478Z,9.745329
2022-08-19T07:22:38.481Z,9.745715
2022-08-19T07:24:38.457Z,9.745493
2022-08-19T07:25:38.475Z,9.745538
2022-08-19T07:26:38.444Z,9.745516
2022-08-19T07:27:39.797Z,9.745543
2022-08-19T07:28:38.432Z,9.745442
2022-08-19T07:29:39.419Z,9.745444
2022-08-19T07:30:38.439Z,9.745461
2022-08-19T07:31:38.431Z,9.745456
2022-08-19T07:32:38.394Z,9.745508
2022-08-19T07:33:38.387Z,9.745425
2022-08-19T07:34:38.381Z,9.745354
2022-08-19T07:35:38.399Z,9.745441
2022-08-19T07:36:38.371Z,9.745295
2022-08-19T07:37:38.365Z,9.745402
2022-08-19T07:38:38.353Z,9.745533
2022-08-19T07:39:38.430Z,9.745458
2022-08-19T07:40:38.382Z,9.745385
2022-08-19T07:41:38.326Z,9.745426
2022-08-19T07:42:38.323Z,9.745454
2022-08-19T07:43:38.313Z,9.745630
2022-08-19T07:45:38.321Z,9.745599
2022-08-19T07:46:38.289Z,9.745498
2022-08-19T07:47:47.989Z,9.745500
2022-08-19T07:48:39.275Z,9.745670
2022-08-19T07:49:38.268Z,9.745417
2022-08-19T07:50:38.284Z,9.745477
2022-08-19T07:51:38.254Z,9.745433
2022-08-19T07:52:38.243Z,9.745357
2022-08-19T07:53:39.879Z,9.745362
2022-08-19T07:54:39.230Z,9.745316
2022-08-19T07:55:41.817Z,9.745474
2022-08-19T07:56:39.213Z,9.745613
2022-08-19T07:57:38.250Z,9.745682
2022-08-19T07:58:38.197Z,9.745606
2022-08-19T07:59:38.214Z,9.745682
2022-08-19T08:00:38.207Z,9.745610
2022-08-19T08:01:41.775Z,9.745564
2022-08-19T08:02:38.168Z,9.745545
2022-08-19T08:03:38.163Z,9.745521
2022-08-19T08:04:38.151Z,9.745603
2022-08-19T08:05:41.774Z,9.745670
2022-08-19T08:06:40.137Z,9.745634
2022-08-19T08:07:38.131Z,9.745564
2022-08-19T08:08:43.843Z,9.745542
2022-08-19T08:09:39.334Z,9.745642
2022-08-19T08:10:38.143Z,9.745692
2022-08-19T08:11:38.099Z,9.745695
2022-08-19T08:12:38.093Z,9.745448
2022-08-19T08:13:39.085Z,9.745401
2022-08-19T08:14:38.078Z,9.745524
2022-08-19T08:15:43.080Z,9.745241
2022-08-19T08:16:39.694Z,9.744937
2022-08-19T08:17:49.612Z,9.745341
2022-08-19T08:18:39.049Z,9.745314
2022-08-19T08:19:38.043Z,9.745564
2022-08-19T08:20:38.058Z,9.745609
2022-08-19T08:21:38.052Z,9.745457
2022-08-19T08:22:38.017Z,9.745507
2022-08-19T08:23:39.810Z,9.745746
2022-08-19T08:24:37.997Z,9.745709
2022-08-19T08:25:38.014Z,9.745649
2022-08-19T08:26:37.984Z,9.745521
2022-08-19T08:27:38.974Z,9.745675
2022-08-19T08:28:37.967Z,9.745611
2022-08-19T08:29:37.964Z,9.745700
2022-08-19T08:30:37.977Z,9.745660
2022-08-19T08:31:37.948Z,9.745807
2022-08-19T08:32:37.937Z,9.745738
2022-08-19T08:33:37.929Z,9.745889
2022-08-19T08:34:37.923Z,9.745749
2022-08-19T08:35:37.935Z,9.745571
2022-08-19T08:36:37.909Z,9.745553
2022-08-19T08:37:37.899Z,9.745653
2022-08-19T08:38:40.117Z,9.745705
2022-08-19T08:39:38.967Z,9.745935
2022-08-19T08:40:37.899Z,9.745906
2022-08-19T08:41:37.867Z,9.745609
2022-08-19T08:42:37.856Z,9.745399
2022-08-19T08:43:37.854Z,9.745474
2022-08-19T08:44:37.857Z,9.745483
2022-08-19T08:45:40.898Z,9.744865
2022-08-19T08:46:37.832Z,9.745261
2022-08-19T08:47:38.096Z,9.745225
2022-08-19T08:48:37.837Z,9.745266
2022-08-19T08:49:37.810Z,9.745447
2022-08-19T08:50:37.811Z,9.745200
2022-08-19T08:51:37.857Z,9.745239
2022-08-19T08:52:37.784Z,9.745487
2022-08-19T08:53:41.467Z,9.745404
2022-08-19T08:54:38.772Z,9.745522
2022-08-19T08:55:37.789Z,9.745602
2022-08-19T08:56:37.753Z,9.745386
2022-08-19T08:57:40.960Z,9.745567
2022-08-19T08:58:37.737Z,9.745294
2022-08-19T08:59:37.738Z,9.745396
2022-08-19T09:00:37.720Z,9.745477
2022-08-19T09:01:37.757Z,9.745396
2022-08-19T09:02:37.697Z,9.745511
2022-08-19T09:03:37.689Z,9.745575
2022-08-19T09:04:37.715Z,9.745581
2022-08-19T09:05:41.504Z,9.745354
2022-08-19T09:06:40.792Z,9.745441
2022-08-19T09:07:38.856Z,9.745482
2022-08-19T09:08:38.654Z,9.745324
2022-08-19T09:09:37.656Z,9.745432
2022-08-19T09:10:44.809Z,9.745646
2022-08-19T09:11:42.431Z,9.745690
2022-08-19T09:12:38.621Z,9.745547
2022-08-19T09:13:37.876Z,9.745382
2022-08-19T09:14:50.247Z,9.745408
2022-08-19T09:15:39.619Z,9.745461
2022-08-19T09:16:37.620Z,9.745794
2022-08-19T09:17:37.585Z,9.745771
2022-08-19T09:18:37.594Z,9.745493
2022-08-19T09:19:37.571Z,9.745543
2022-08-19T09:20:37.561Z,9.745482
2022-08-19T09:21:38.575Z,9.745581
2022-08-19T09:22:37.543Z,9.745778
2022-08-19T09:23:37.542Z,9.745737
2022-08-19T09:24:37.527Z,9.745565
2022-08-19T09:25:37.535Z,9.745346
2022-08-19T09:26:52.318Z,9.745457
2022-08-19T09:27:53.914Z,9.745440
2022-08-19T09:28:38.498Z,9.745340
2022-08-19T09:29:37.491Z,9.745614
2022-08-19T09:30:37.483Z,9.745733
2022-08-19T09:31:37.503Z,9.745588
2022-08-19T09:32:37.468Z,9.745605
2022-08-19T09:33:37.468Z,9.745596
2022-08-19T09:34:37.957Z,9.745668
2022-08-19T09:35:50.149Z,9.745545
2022-08-19T09:36:38.475Z,9.745620
2022-08-19T09:37:37.430Z,9.745476
2022-08-19T09:38:37.426Z,9.745472
2022-08-19T09:39:38.444Z,9.745718
2022-08-19T09:40:38.547Z,9.745317
2022-08-19T09:41:38.426Z,9.745566
2022-08-19T09:42:37.399Z,9.745440
2022-08-19T09:43:44.409Z,9.745203
2022-08-19T09:44:38.378Z,9.745201
2022-08-19T09:45:37.369Z,9.745343
2022-08-19T09:46:37.390Z,9.745346
2022-08-19T09:47:37.348Z,9.745461
2022-08-19T09:48:37.338Z,9.745321
2022-08-19T09:49:37.336Z,9.745129
2022-08-19T09:50:37.325Z,9.745296
2022-08-19T09:51:37.475Z,9.745387
2022-08-19T09:52:37.311Z,9.745146
2022-08-19T09:53:37.378Z,9.745092
2022-08-19T09:54:37.308Z,9.745262
2022-08-19T09:55:37.303Z,9.745173
2022-08-19T09:56:37.316Z,9.745381
2022-08-19T09:57:37.278Z,9.745390
2022-08-19T09:58:37.274Z,9.745445
2022-08-19T09:59:37.274Z,9.745076
2022-08-19T10:00:37.255Z,9.745017
2022-08-19T10:01:37.353Z,9.745240
2022-08-19T10:02:37.241Z,9.745146
2022-08-19T10:03:37.243Z,9.745152
2022-08-19T10:04:37.223Z,9.745351
2022-08-19T10:05:37.217Z,9.745131
2022-08-19T10:06:45.662Z,9.745544
2022-08-19T10:07:38.197Z,9.745442
2022-08-19T10:08:37.191Z,9.745644
2022-08-19T10:09:37.182Z,9.745546
2022-08-19T10:10:37.177Z,9.745704
2022-08-19T10:11:40.628Z,9.745667
2022-08-19T10:12:38.161Z,9.745523
2022-08-19T10:13:38.153Z,9.745600
2022-08-19T10:14:37.144Z,9.745858
2022-08-19T10:15:47.179Z,9.745671
2022-08-19T10:16:39.768Z,9.745771
2022-08-19T10:17:37.120Z,9.745376
2022-08-19T10:18:37.115Z,9.745540
2022-08-19T10:19:37.108Z,9.745508
2022-08-19T10:20:37.095Z,9.745510
2022-08-19T10:21:37.086Z,9.745249
2022-08-19T10:22:37.099Z,9.744863
2022-08-19T10:23:37.071Z,9.745225
2022-08-19T10:24:37.090Z,9.745730
2022-08-19T10:25:38.434Z,9.745892
2022-08-19T10:26:37.058Z,9.745951
2022-08-19T10:27:37.077Z,9.745688
2022-08-19T10:28:37.038Z,9.745322
2022-08-19T10:29:37.029Z,9.745577
2022-08-19T10:30:38.055Z,9.745579
2022-08-19T10:32:01.139Z,9.745815
2022-08-19T10:32:38.032Z,9.745812
2022-08-19T10:33:40.954Z,9.745703
2022-08-19T10:34:37.987Z,9.745479
2022-08-19T10:35:56.258Z,9.745585
2022-08-19T10:36:37.990Z,9.745412
2022-08-19T10:37:37.992Z,9.745393
2022-08-19T10:38:37.959Z,9.745143
2022-08-19T10:39:43.429Z,9.745223
2022-08-19T10:40:37.945Z,9.745242
2022-08-19T10:41:36.944Z,9.745466
2022-08-19T10:42:36.963Z,9.745699
2022-08-19T10:43:36.952Z,9.745591
2022-08-19T10:44:36.915Z,9.745344
2022-08-19T10:45:36.933Z,9.745609
2022-08-19T10:46:37.903Z,9.745706
2022-08-19T10:47:36.925Z,9.745142
2022-08-19T10:48:36.889Z,9.745155
2022-08-19T10:49:36.881Z,9.744867
2022-08-19T10:50:36.871Z,9.745024
2022-08-19T10:51:36.865Z,9.745085
2022-08-19T10:52:38.815Z,9.745085
2022-08-19T10:53:36.853Z,9.745376
2022-08-19T10:54:36.840Z,9.745411
2022-08-19T10:55:36.861Z,9.745428
2022-08-19T10:56:36.832Z,9.745625
2022-08-19T10:58:03.302Z,9.745628
2022-08-19T10:58:38.816Z,9.745840
2022-08-19T10:59:36.806Z,9.745854
2022-08-19T11:00:36.803Z,9.745530
2022-08-19T11:01:36.843Z,9.745665
2022-08-19T11:02:36.809Z,9.745745
2022-08-19T11:03:36.778Z,9.745599
2022-08-19T11:04:36.769Z,9.745571
2022-08-19T11:05:39.936Z,9.745424
2022-08-19T11:06:36.751Z,9.745378
2022-08-19T11:07:36.781Z,9.745435
2022-08-19T11:08:36.737Z,9.745381
2022-08-19T11:09:36.735Z,9.745361
2022-08-19T11:10:36.725Z,9.745439
2022-08-19T11:11:38.457Z,9.745416
2022-08-19T11:12:36.731Z,9.745465
2022-08-19T11:13:36.694Z,9.745459
2022-08-19T11:14:36.690Z,9.745515
2022-08-19T11:15:36.679Z,9.745543
2022-08-19T11:16:36.671Z,9.745503
2022-08-19T11:17:36.665Z,9.745040
2022-08-19T11:18:36.718Z,9.745008
2022-08-19T11:19:36.650Z,9.745128
2022-08-19T11:20:36.648Z,9.745155
2022-08-19T11:21:36.635Z,9.745312
2022-08-19T11:22:40.628Z,9.745466
2022-08-19T11:23:37.646Z,9.745393
2022-08-19T11:24:36.607Z,9.745312
2022-08-19T11:25:36.594Z,9.745396
2022-08-19T11:26:37.596Z,9.745509
2022-08-19T11:27:36.604Z,9.745531
2022-08-19T11:28:36.602Z,9.745521
2022-08-19T11:29:36.574Z,9.745677
2022-08-19T11:30:36.566Z,9.745660
2022-08-19T11:31:36.557Z,9.745712
2022-08-19T11:32:36.549Z,9.745547
2022-08-19T11:33:36.571Z,9.745613
2022-08-19T11:34:36.545Z,9.745646
2022-08-19T11:35:36.524Z,9.745514
2022-08-19T11:36:36.519Z,9.745294
2022-08-19T11:37:36.515Z,9.745572
2022-08-19T11:38:36.534Z,9.745448
2022-08-19T11:39:36.579Z,9.745245
2022-08-19T11:40:36.494Z,9.745230
2022-08-19T11:41:36.475Z,9.745263
2022-08-19T11:42:36.498Z,9.745359
2022-08-19T11:43:37.641Z,9.745600
2022-08-19T11:44:37.455Z,9.745362
2022-08-19T11:45:36.445Z,9.745298
2022-08-19T11:46:36.442Z,9.745404
2022-08-19T11:47:36.454Z,9.745471